createdAt,value
2019-05-21T00:02:10.934Z,47.00
2019-05-21T00:04:45.673Z,47.00
2019-05-21T00:07:13.187Z,47.00
2019-05-21T00:09:44.607Z,47.10
2019-05-21T00:12:12.578Z,47.00
2019-05-21T00:14:42.886Z,47.00
2019-05-21T00:28:57.557Z,46.90
2019-05-21T00:31:58.104Z,46.90
2019-05-21T00:37:13.628Z,46.90
2019-05-21T00:42:57.928Z,46.90
2019-05-21T00:45:40.460Z,46.90
2019-05-21T00:48:07.768Z,46.80
2019-05-21T00:50:37.112Z,46.90
2019-05-21T00:53:11.738Z,46.80
2019-05-21T00:55:40.801Z,46.80
2019-05-21T00:58:14.493Z,46.80
2019-05-21T01:00:43.315Z,46.80
2019-05-21T01:03:10.430Z,46.80
2019-05-21T01:05:37.722Z,46.80
2019-05-21T01:08:04.886Z,46.80
2019-05-21T01:10:31.952Z,46.80
2019-05-21T01:12:59.236Z,46.80
2019-05-21T01:15:26.294Z,46.70
2019-05-21T01:17:53.355Z,46.70
2019-05-21T01:20:20.590Z,46.60
2019-05-21T01:22:47.683Z,46.60
2019-05-21T01:25:14.812Z,46.50
2019-05-21T01:27:41.874Z,46.50
2019-05-21T01:30:08.997Z,46.50
2019-05-21T01:32:36.056Z,46.30
2019-05-21T01:35:16.149Z,46.20
2019-05-21T01:37:31.896Z,46.10
2019-05-21T01:39:59.022Z,46.10
2019-05-21T01:42:26.108Z,46.10
2019-05-21T01:44:53.172Z,46.10
2019-05-21T01:47:20.260Z,46.10
2019-05-21T01:49:47.386Z,45.90
2019-05-21T01:52:14.451Z,46.00
2019-05-21T01:54:41.541Z,45.90
2019-05-21T01:57:08.646Z,46.00
2019-05-21T01:59:36.011Z,46.00
2019-05-21T02:02:03.105Z,46.60
2019-05-21T02:04:30.192Z,45.90
2019-05-21T02:06:57.253Z,45.90
2019-05-21T02:09:24.387Z,45.80
2019-05-21T02:11:51.468Z,45.70
2019-05-21T02:14:18.535Z,45.70
2019-05-21T02:16:45.625Z,45.70
2019-05-21T02:19:12.703Z,45.60
2019-05-21T02:21:40.062Z,45.70
2019-05-21T02:24:07.195Z,45.70
2019-05-21T02:26:34.365Z,45.60
2019-05-21T02:29:01.434Z,45.60
2019-05-21T02:31:28.672Z,45.60
2019-05-21T02:33:55.798Z,45.50
2019-05-21T02:36:22.871Z,45.60
2019-05-21T02:38:49.994Z,45.60
2019-05-21T02:41:20.122Z,45.50
2019-05-21T02:43:47.208Z,45.40
2019-05-21T02:46:14.347Z,45.40
2019-05-21T02:48:41.429Z,45.40
2019-05-21T02:51:08.752Z,45.40
2019-05-21T02:53:35.881Z,45.30
2019-05-21T02:56:02.940Z,45.30
2019-05-21T02:58:30.026Z,45.30
2019-05-21T03:00:57.109Z,45.30
2019-05-21T03:03:24.385Z,45.30
2019-05-21T03:05:51.495Z,45.30
2019-05-21T03:08:18.635Z,45.20
2019-05-21T03:10:45.703Z,45.30
2019-05-21T03:13:12.974Z,45.30
2019-05-21T03:15:40.048Z,45.30
2019-05-21T03:18:07.146Z,45.30
2019-05-21T03:20:34.348Z,45.30
2019-05-21T03:23:01.552Z,45.30
2019-05-21T03:25:28.662Z,45.40
2019-05-21T03:27:55.785Z,45.40
2019-05-21T03:30:22.945Z,45.40
2019-05-21T03:32:50.071Z,45.50
2019-05-21T03:35:17.343Z,45.40
2019-05-21T03:37:44.432Z,45.40
2019-05-21T03:40:11.491Z,45.40
2019-05-21T03:42:38.791Z,45.30
2019-05-21T03:45:07.759Z,45.30
2019-05-21T03:47:34.665Z,45.40
2019-05-21T03:50:01.723Z,45.40
2019-05-21T03:52:29.044Z,45.40
2019-05-21T03:54:56.214Z,45.30
2019-05-21T03:57:23.304Z,45.30
2019-05-21T03:59:50.570Z,45.40
2019-05-21T04:02:17.643Z,45.40
2019-05-21T04:04:44.705Z,45.30
2019-05-21T04:07:11.799Z,45.30
2019-05-21T04:09:38.867Z,46.00
2019-05-21T04:12:06.231Z,45.30
2019-05-21T04:14:33.463Z,45.20
2019-05-21T04:17:00.527Z,45.20
2019-05-21T04:19:27.633Z,45.20
2019-05-21T04:21:54.797Z,45.20
2019-05-21T04:24:21.889Z,45.20
2019-05-21T04:26:48.972Z,45.10
2019-05-21T04:29:16.034Z,45.10
2019-05-21T04:31:43.208Z,45.10
2019-05-21T04:34:10.290Z,45.00
2019-05-21T04:36:37.348Z,45.10
2019-05-21T04:39:04.422Z,45.00
2019-05-21T04:41:31.639Z,45.10
2019-05-21T04:43:58.884Z,45.00
2019-05-21T04:46:26.073Z,45.00
2019-05-21T04:48:53.146Z,44.90
2019-05-21T04:51:20.484Z,44.80
2019-05-21T04:53:47.685Z,44.80
2019-05-21T04:56:15.608Z,44.80
2019-05-21T04:58:42.700Z,44.80
2019-05-21T05:01:10.974Z,44.70
2019-05-21T05:03:38.186Z,44.90
2019-05-21T05:06:05.410Z,45.00
2019-05-21T05:08:32.490Z,45.00
2019-05-21T05:10:59.565Z,45.10
2019-05-21T05:13:27.183Z,45.00
2019-05-21T05:15:54.241Z,45.10
2019-05-21T05:18:21.337Z,45.30
2019-05-21T05:20:48.442Z,45.30
2019-05-21T05:23:15.519Z,46.10
2019-05-21T05:25:42.789Z,45.40
2019-05-21T05:28:11.291Z,46.20
2019-05-21T05:30:41.173Z,45.60
2019-05-21T05:33:08.239Z,45.60
2019-05-21T05:35:35.460Z,45.90
2019-05-21T05:38:02.618Z,46.30
2019-05-21T05:40:29.949Z,45.80
2019-05-21T05:42:57.271Z,45.90
2019-05-21T05:45:24.374Z,46.20
2019-05-21T05:47:51.738Z,46.40
2019-05-21T05:50:19.038Z,46.20
2019-05-21T05:52:46.239Z,46.10
2019-05-21T05:55:13.341Z,46.10
2019-05-21T05:57:40.468Z,45.80
2019-05-21T06:00:07.569Z,45.70
2019-05-21T06:02:34.884Z,45.70
2019-05-21T06:05:01.946Z,45.60
2019-05-21T06:07:29.043Z,45.60
2019-05-21T06:09:56.160Z,45.60
2019-05-21T06:12:23.459Z,45.60
2019-05-21T06:14:50.610Z,45.40
2019-05-21T06:17:17.939Z,45.50
2019-05-21T06:19:45.037Z,45.60
2019-05-21T06:22:12.209Z,45.60
2019-05-21T06:24:39.329Z,45.50
2019-05-21T06:27:06.419Z,45.60
2019-05-21T06:29:33.481Z,45.50
2019-05-21T06:32:00.643Z,45.50
2019-05-21T06:34:29.446Z,45.50
2019-05-21T06:36:56.603Z,45.50
2019-05-21T06:39:23.706Z,45.50
2019-05-21T06:41:50.806Z,45.40
2019-05-21T06:44:17.868Z,45.50
2019-05-21T06:46:44.994Z,45.40
2019-05-21T06:49:12.092Z,45.30
2019-05-21T06:51:39.309Z,45.30
2019-05-21T06:54:06.366Z,45.40
2019-05-21T06:56:33.456Z,45.30
2019-05-21T06:59:00.757Z,45.40
2019-05-21T07:01:29.442Z,45.50
2019-05-21T07:03:56.776Z,45.40
2019-05-21T07:06:23.840Z,45.40
2019-05-21T07:08:51.017Z,45.40
2019-05-21T07:11:18.378Z,45.30
2019-05-21T07:13:49.770Z,45.50
2019-05-21T07:16:16.957Z,45.30
2019-05-21T07:18:44.244Z,45.30
2019-05-21T07:21:11.427Z,45.20
2019-05-21T07:23:38.605Z,45.40
2019-05-21T07:26:05.974Z,45.30
2019-05-21T07:28:33.104Z,45.40
2019-05-21T07:31:00.223Z,45.30
2019-05-21T07:33:27.501Z,45.20
2019-05-21T07:35:54.647Z,45.20
2019-05-21T07:38:21.757Z,45.20
2019-05-21T07:40:49.110Z,45.40
2019-05-21T07:43:16.200Z,45.40
2019-05-21T07:45:44.951Z,45.40
2019-05-21T07:48:12.084Z,45.30
2019-05-21T07:50:39.153Z,45.30
2019-05-21T07:53:06.676Z,45.20
2019-05-21T07:55:33.783Z,45.30
2019-05-21T07:58:00.958Z,45.20
2019-05-21T08:00:29.279Z,45.20
2019-05-21T08:02:56.796Z,45.20
2019-05-21T08:08:32.868Z,45.20
2019-05-21T08:11:00.070Z,45.20
2019-05-21T08:13:27.564Z,45.30
2019-05-21T08:16:12.043Z,45.30
2019-05-21T08:18:39.192Z,45.30
2019-05-21T08:24:03.350Z,45.20
2019-05-21T08:29:35.484Z,45.20
2019-05-21T08:32:02.812Z,45.20
2019-05-21T08:34:30.330Z,45.20
2019-05-21T08:36:57.861Z,45.20
2019-05-21T08:42:11.532Z,45.20
2019-05-21T08:44:43.608Z,45.10
2019-05-21T08:47:12.348Z,45.10
2019-05-21T08:49:39.882Z,45.20
2019-05-21T08:54:56.636Z,45.10
2019-05-21T08:57:23.996Z,45.10
2019-05-21T08:59:54.453Z,45.10
2019-05-21T09:02:23.827Z,45.10
2019-05-21T09:04:52.515Z,45.00
2019-05-21T09:07:20.278Z,45.10
2019-05-21T09:09:52.011Z,45.00
2019-05-21T09:17:57.417Z,45.10
2019-05-21T09:20:24.709Z,45.20
2019-05-21T09:23:02.597Z,45.10
2019-05-21T09:31:27.657Z,45.20
2019-05-21T09:33:56.914Z,45.30
2019-05-21T09:36:25.296Z,45.10
2019-05-21T09:38:54.594Z,45.10
2019-05-21T09:41:26.351Z,45.10
2019-05-21T09:43:58.417Z,45.20
2019-05-21T09:46:28.637Z,45.20
2019-05-21T09:51:50.080Z,45.20
2019-05-21T09:57:32.842Z,45.20
2019-05-21T10:00:15.203Z,45.30
2019-05-21T10:02:42.809Z,45.90
2019-05-21T10:05:40.637Z,45.30
2019-05-21T10:17:20.078Z,45.10
2019-05-21T10:27:26.570Z,45.20
2019-05-21T10:29:50.067Z,45.20
2019-05-21T10:32:35.710Z,45.20
2019-05-21T10:35:04.018Z,45.30
2019-05-21T10:37:54.662Z,45.30
2019-05-21T10:40:05.360Z,45.30
2019-05-21T10:42:33.945Z,45.40
2019-05-21T10:45:13.687Z,45.30
2019-05-21T10:47:42.687Z,45.30
2019-05-21T10:50:28.206Z,45.50
2019-05-21T10:53:18.354Z,45.40
2019-05-21T10:55:40.893Z,45.50
2019-05-21T10:58:34.462Z,45.40
2019-05-21T11:03:32.551Z,45.40
2019-05-21T11:06:10.002Z,45.40
2019-05-21T11:13:54.447Z,45.80
2019-05-21T11:16:33.952Z,45.80
2019-05-21T11:19:21.297Z,45.80
2019-05-21T11:24:51.744Z,45.90
2019-05-21T11:27:39.170Z,46.00
2019-05-21T11:30:14.398Z,46.10
2019-05-21T11:35:35.941Z,46.20
2019-05-21T11:41:19.606Z,46.20
2019-05-21T11:43:53.168Z,46.70
2019-05-21T11:46:20.254Z,47.40
2019-05-21T11:48:47.340Z,47.20
2019-05-21T11:51:14.722Z,47.10
2019-05-21T11:53:41.786Z,47.20
2019-05-21T11:56:08.907Z,47.30
2019-05-21T11:58:39.910Z,47.40
2019-05-21T12:01:05.008Z,47.50
2019-05-21T12:03:32.215Z,47.40
2019-05-21T12:05:59.561Z,47.10
2019-05-21T12:08:26.799Z,47.10
2019-05-21T12:10:53.930Z,47.00
2019-05-21T12:13:21.500Z,47.00
2019-05-21T12:15:48.709Z,46.90
2019-05-21T12:18:15.860Z,46.90
2019-05-21T12:20:42.999Z,46.80
2019-05-21T12:23:10.167Z,46.70
2019-05-21T12:25:37.450Z,46.80
2019-05-21T12:28:04.702Z,46.70
2019-05-21T12:30:32.184Z,46.60
2019-05-21T12:32:59.469Z,46.50
2019-05-21T12:35:26.597Z,46.60
2019-05-21T12:37:53.681Z,46.80
2019-05-21T12:40:21.545Z,46.70
2019-05-21T12:42:48.767Z,46.50
2019-05-21T12:45:15.905Z,46.60
2019-05-21T12:47:42.977Z,46.60
2019-05-21T12:50:10.226Z,46.70
2019-05-21T12:52:37.463Z,46.40
2019-05-21T12:55:04.560Z,46.70
2019-05-21T12:57:31.824Z,46.50
2019-05-21T12:59:58.936Z,46.50
2019-05-21T13:02:26.112Z,46.50
2019-05-21T13:04:53.663Z,46.30
2019-05-21T13:07:20.866Z,46.40
2019-05-21T13:09:48.310Z,46.10
2019-05-21T13:12:15.409Z,46.20
2019-05-21T13:14:42.574Z,46.20
2019-05-21T13:17:09.917Z,46.20
2019-05-21T13:19:37.032Z,46.30
2019-05-21T13:22:04.102Z,46.50
2019-05-21T13:24:31.212Z,46.30
2019-05-21T13:26:58.335Z,46.30
2019-05-21T13:29:25.507Z,46.10
2019-05-21T13:31:52.647Z,46.10
2019-05-21T13:34:19.760Z,46.10
2019-05-21T13:36:48.378Z,46.00
2019-05-21T13:39:17.177Z,46.10
2019-05-21T13:41:44.252Z,46.00
2019-05-21T13:44:11.412Z,45.90
2019-05-21T13:46:38.507Z,46.00
2019-05-21T13:49:05.666Z,46.00
2019-05-21T13:51:32.810Z,45.90
2019-05-21T13:53:59.980Z,45.80
2019-05-21T13:56:30.245Z,46.10
2019-05-21T13:59:07.922Z,46.40
2019-05-21T14:01:40.147Z,46.40
2019-05-21T14:03:57.831Z,46.20
2019-05-21T14:06:24.955Z,46.20
2019-05-21T14:08:52.071Z,46.20
2019-05-21T14:11:19.303Z,46.20
2019-05-21T14:13:46.539Z,46.20
2019-05-21T14:16:13.627Z,46.20
2019-05-21T14:18:40.748Z,46.20
2019-05-21T14:21:07.890Z,46.10
2019-05-21T14:23:35.228Z,46.10
2019-05-21T14:26:02.354Z,46.10
2019-05-21T14:28:29.500Z,46.20
2019-05-21T14:30:56.907Z,46.20
2019-05-21T14:33:24.013Z,46.10
2019-05-21T14:35:51.084Z,46.20
2019-05-21T14:38:18.193Z,46.20
2019-05-21T14:40:45.311Z,46.30
2019-05-21T14:43:12.438Z,46.30
2019-05-21T14:45:39.546Z,46.30
2019-05-21T14:48:06.613Z,46.40
2019-05-21T14:50:33.796Z,46.50
2019-05-21T14:53:00.883Z,46.50
2019-05-21T14:55:30.951Z,46.20
2019-05-21T14:57:58.926Z,46.20
2019-05-21T15:00:26.753Z,46.10
2019-05-21T15:02:53.907Z,46.00
2019-05-21T15:05:25.688Z,46.00
2019-05-21T15:08:06.940Z,46.00
2019-05-21T15:10:47.840Z,45.90
2019-05-21T15:13:18.003Z,45.90
2019-05-21T15:21:06.803Z,45.90
2019-05-21T15:26:27.745Z,46.40
2019-05-21T15:29:06.968Z,46.10
2019-05-21T15:37:11.320Z,45.80
2019-05-21T15:39:42.042Z,45.90
2019-05-21T16:00:56.524Z,45.60
2019-05-21T16:03:41.143Z,45.60
2019-05-21T16:06:29.965Z,45.60
2019-05-21T16:09:06.624Z,45.60
2019-05-21T16:11:48.703Z,45.60
2019-05-21T16:14:25.356Z,45.50
2019-05-21T16:16:52.587Z,45.60
2019-05-21T16:19:21.635Z,45.50
2019-05-21T16:26:58.625Z,45.80
2019-05-21T16:29:25.785Z,45.70
2019-05-21T16:32:20.114Z,45.60
2019-05-21T16:37:19.097Z,45.80
2019-05-21T16:39:47.987Z,45.70
2019-05-21T16:42:49.041Z,45.70
2019-05-21T16:45:09.111Z,45.70
2019-05-21T16:47:46.412Z,45.90
2019-05-21T16:55:28.391Z,45.80
2019-05-21T16:57:58.372Z,46.00
2019-05-21T17:00:45.784Z,46.00
2019-05-21T17:03:15.008Z,45.90
2019-05-21T17:05:44.269Z,45.90
2019-05-21T17:08:30.405Z,45.80
2019-05-21T17:13:41.771Z,46.20
2019-05-21T17:16:10.731Z,45.90
2019-05-21T17:18:38.380Z,46.00
2019-05-21T17:21:05.651Z,46.00
2019-05-21T17:24:03.860Z,45.90
2019-05-21T17:29:08.849Z,46.10
2019-05-21T17:31:36.166Z,46.10
2019-05-21T17:36:51.989Z,46.00
2019-05-21T17:39:19.130Z,46.10
2019-05-21T17:41:46.507Z,46.10
2019-05-21T17:44:13.603Z,46.10
2019-05-21T17:46:40.684Z,46.00
2019-05-21T17:49:07.802Z,46.10
2019-05-21T17:51:34.916Z,46.00
2019-05-21T17:54:03.686Z,45.80
2019-05-21T17:56:30.779Z,46.30
2019-05-21T17:58:57.864Z,46.10
2019-05-21T18:01:25.078Z,46.10
2019-05-21T18:03:52.141Z,46.30
2019-05-21T18:06:19.285Z,46.40
2019-05-21T18:08:46.603Z,46.30
2019-05-21T18:11:13.925Z,46.30
2019-05-21T18:13:41.050Z,46.20
2019-05-21T18:16:09.597Z,46.30
2019-05-21T18:18:36.760Z,46.30
2019-05-21T18:21:03.851Z,46.30
2019-05-21T18:23:31.180Z,46.20
2019-05-21T18:25:58.267Z,46.20
2019-05-21T18:28:25.390Z,46.30
2019-05-21T18:30:52.654Z,46.30
2019-05-21T18:33:19.772Z,46.20
2019-05-21T18:35:46.844Z,46.20
2019-05-21T18:38:14.730Z,46.20
2019-05-21T18:40:42.081Z,46.20
2019-05-21T18:43:09.235Z,46.20
2019-05-21T18:45:36.353Z,46.20
2019-05-21T18:48:03.497Z,46.20
2019-05-21T18:50:36.239Z,46.10
2019-05-21T18:52:59.368Z,46.10
2019-05-21T18:55:26.475Z,46.10
2019-05-21T18:57:53.583Z,46.10
2019-05-21T19:00:20.857Z,46.10
2019-05-21T19:02:48.130Z,46.10
2019-05-21T19:05:15.215Z,46.00
2019-05-21T19:07:42.273Z,46.00
2019-05-21T19:10:09.600Z,46.00
2019-05-21T19:12:38.659Z,46.00
2019-05-21T19:15:05.693Z,45.90
2019-05-21T19:17:35.592Z,46.00
2019-05-21T19:20:01.782Z,46.00
2019-05-21T19:22:29.110Z,45.90
2019-05-21T19:24:56.600Z,45.90
2019-05-21T19:27:27.103Z,45.90
2019-05-21T19:29:54.193Z,45.90
2019-05-21T19:32:22.260Z,46.00
2019-05-21T19:34:49.376Z,46.00
2019-05-21T19:37:16.717Z,45.90
2019-05-21T19:39:43.994Z,45.90
2019-05-21T19:42:11.303Z,46.00
2019-05-21T19:44:38.474Z,45.90
2019-05-21T19:47:05.626Z,45.80
2019-05-21T19:49:32.846Z,45.90
2019-05-21T19:51:59.945Z,45.90
2019-05-21T19:54:27.084Z,45.90
2019-05-21T19:56:54.215Z,45.80
2019-05-21T19:59:21.336Z,45.80
2019-05-21T20:01:48.499Z,45.90
2019-05-21T20:04:15.652Z,45.80
2019-05-21T20:06:42.749Z,45.90
2019-05-21T20:09:09.835Z,45.70
2019-05-21T20:11:38.386Z,45.70
2019-05-21T20:14:06.329Z,45.80
2019-05-21T20:16:34.490Z,45.70
2019-05-21T20:19:01.752Z,45.90
2019-05-21T20:21:28.911Z,45.90
2019-05-21T20:23:56.425Z,45.80
2019-05-21T20:26:23.609Z,45.90
2019-05-21T20:28:50.743Z,45.90
2019-05-21T20:31:18.693Z,45.90
2019-05-21T20:33:48.889Z,45.90
2019-05-21T20:36:22.105Z,45.80
2019-05-21T20:38:50.293Z,45.80
2019-05-21T20:41:19.287Z,45.70
2019-05-21T20:43:58.169Z,45.70
2019-05-21T20:46:15.682Z,45.80
2019-05-21T20:48:43.165Z,45.80
2019-05-21T20:51:10.852Z,45.70
2019-05-21T20:53:38.215Z,45.70
2019-05-21T20:56:05.308Z,45.80
2019-05-21T20:58:32.401Z,45.70
2019-05-21T21:01:03.149Z,45.70
2019-05-21T21:03:30.461Z,45.80
2019-05-21T21:05:57.858Z,45.60
2019-05-21T21:08:27.723Z,45.60
2019-05-21T21:10:54.242Z,45.60
2019-05-21T21:13:22.610Z,45.70
2019-05-21T21:15:50.428Z,45.60
2019-05-21T21:18:18.039Z,45.70
2019-05-21T21:20:45.292Z,45.70
2019-05-21T21:23:12.857Z,45.80
2019-05-21T21:25:40.165Z,45.80
2019-05-21T21:28:07.539Z,45.70
2019-05-21T21:30:34.870Z,45.70
2019-05-21T21:33:02.041Z,45.70
2019-05-21T21:35:29.193Z,45.70
2019-05-21T21:37:56.869Z,45.60
2019-05-21T21:40:24.477Z,45.70
2019-05-21T21:42:51.497Z,45.60
2019-05-21T21:45:19.569Z,46.30
2019-05-21T21:47:46.874Z,45.70
2019-05-21T21:50:13.944Z,45.60
2019-05-21T21:52:41.013Z,45.60
2019-05-21T21:55:08.470Z,45.60
2019-05-21T21:57:35.691Z,45.60
2019-05-21T22:00:02.972Z,45.70
2019-05-21T22:02:30.066Z,45.70
2019-05-21T22:04:57.161Z,45.70
2019-05-21T22:07:24.244Z,45.80
2019-05-21T22:09:51.330Z,45.70
2019-05-21T22:12:18.621Z,45.80
2019-05-21T22:14:51.737Z,45.80
2019-05-21T22:17:14.475Z,45.80
2019-05-21T22:19:41.628Z,45.80
2019-05-21T22:22:08.727Z,45.80
2019-05-21T22:24:35.903Z,45.80
2019-05-21T22:27:03.086Z,45.80
2019-05-21T22:29:30.184Z,45.80
2019-05-21T22:31:57.245Z,45.80
2019-05-21T22:34:24.346Z,45.80
2019-05-21T22:36:51.426Z,45.90
2019-05-21T22:39:18.527Z,45.60
2019-05-21T22:41:45.838Z,45.80
2019-05-21T22:44:13.073Z,45.80
2019-05-21T22:46:40.159Z,45.80
2019-05-21T22:49:07.228Z,45.80
2019-05-21T22:51:34.444Z,45.80
2019-05-21T22:54:01.656Z,45.80
2019-05-21T22:56:28.881Z,45.80
2019-05-21T22:58:55.976Z,45.80
2019-05-21T23:01:23.044Z,45.80
2019-05-21T23:03:50.306Z,45.80
2019-05-21T23:06:17.400Z,45.80
2019-05-21T23:08:44.510Z,45.80
2019-05-21T23:11:11.644Z,45.80
2019-05-21T23:13:38.706Z,45.90
2019-05-21T23:16:05.803Z,45.70
2019-05-21T23:18:32.928Z,45.90
2019-05-21T23:21:00.044Z,45.80
2019-05-21T23:23:27.116Z,45.80
2019-05-21T23:25:54.214Z,45.90
2019-05-21T23:28:21.274Z,45.80
2019-05-21T23:30:48.359Z,45.80
2019-05-21T23:33:15.455Z,45.80
2019-05-21T23:35:42.521Z,45.80
2019-05-21T23:38:09.711Z,45.80
2019-05-21T23:40:36.774Z,45.80
2019-05-21T23:43:03.880Z,45.80
2019-05-21T23:45:30.945Z,45.80
2019-05-21T23:47:58.032Z,45.80
2019-05-21T23:50:25.249Z,45.80
2019-05-21T23:52:52.336Z,45.80
2019-05-21T23:55:19.398Z,45.80
2019-05-21T23:57:46.492Z,45.80
